sensor_id;sensor_type;location;lat;lon;timestamp;P1;durP1;ratioP1;P2;durP2;ratioP2
46000;SDS011;72226;48.272;11.180;2023-11-19T00:00:24;2.13;;;1.20;;
46000;SDS011;72226;48.272;11.180;2023-11-19T00:02:49;1.90;;;1.00;;
46000;SDS011;72226;48.272;11.180;2023-11-19T00:05:15;2.58;;;1.20;;
46000;SDS011;72226;48.272;11.180;2023-11-19T00:07:40;1.35;;;1.10;;
46000;SDS011;72226;48.272;11.180;2023-11-19T00:10:09;1.70;;;1.13;;
46000;SDS011;72226;48.272;11.180;2023-11-19T00:12:40;1.23;;;0.60;;
46000;SDS011;72226;48.272;11.180;2023-11-19T00:15:07;1.15;;;0.70;;
46000;SDS011;72226;48.272;11.180;2023-11-19T00:17:36;2.05;;;0.77;;
46000;SDS011;72226;48.272;11.180;2023-11-19T00:20:07;0.63;;;0.52;;
46000;SDS011;72226;48.272;11.180;2023-11-19T00:22:33;2.45;;;0.68;;
46000;SDS011;72226;48.272;11.180;2023-11-19T00:24:58;1.25;;;0.98;;
46000;SDS011;72226;48.272;11.180;2023-11-19T00:27:24;1.40;;;0.90;;
46000;SDS011;72226;48.272;11.180;2023-11-19T00:29:50;1.55;;;0.75;;
46000;SDS011;72226;48.272;11.180;2023-11-19T00:32:15;1.02;;;0.80;;
46000;SDS011;72226;48.272;11.180;2023-11-19T00:34:43;0.95;;;0.85;;
46000;SDS011;72226;48.272;11.180;2023-11-19T00:37:09;1.38;;;0.70;;
46000;SDS011;72226;48.272;11.180;2023-11-19T00:39:34;0.70;;;0.43;;
46000;SDS011;72226;48.272;11.180;2023-11-19T00:42:00;2.17;;;1.05;;
46000;SDS011;72226;48.272;11.180;2023-11-19T00:44:25;1.42;;;0.50;;
46000;SDS011;72226;48.272;11.180;2023-11-19T00:46:51;2.42;;;1.00;;
46000;SDS011;72226;48.272;11.180;2023-11-19T00:49:16;1.05;;;0.82;;
46000;SDS011;72226;48.272;11.180;2023-11-19T00:51:41;2.25;;;1.02;;
46000;SDS011;72226;48.272;11.180;2023-11-19T00:54:07;1.33;;;0.60;;
46000;SDS011;72226;48.272;11.180;2023-11-19T00:56:32;1.48;;;0.60;;
46000;SDS011;72226;48.272;11.180;2023-11-19T00:58:57;1.75;;;0.90;;
46000;SDS011;72226;48.272;11.180;2023-11-19T01:01:25;0.60;;;0.38;;
46000;SDS011;72226;48.272;11.180;2023-11-19T01:03:51;1.38;;;0.57;;
46000;SDS011;72226;48.272;11.180;2023-11-19T01:06:26;1.08;;;0.85;;
46000;SDS011;72226;48.272;11.180;2023-11-19T01:08:55;0.98;;;0.40;;
46000;SDS011;72226;48.272;11.180;2023-11-19T01:11:22;0.90;;;0.60;;
46000;SDS011;72226;48.272;11.180;2023-11-19T01:13:48;0.88;;;0.65;;
46000;SDS011;72226;48.272;11.180;2023-11-19T01:16:14;0.52;;;0.52;;
46000;SDS011;72226;48.272;11.180;2023-11-19T01:18:39;1.15;;;0.80;;
46000;SDS011;72226;48.272;11.180;2023-11-19T01:21:05;1.38;;;0.80;;
46000;SDS011;72226;48.272;11.180;2023-11-19T01:23:30;0.73;;;0.57;;
46000;SDS011;72226;48.272;11.180;2023-11-19T01:25:56;2.50;;;0.43;;
46000;SDS011;72226;48.272;11.180;2023-11-19T01:28:21;0.35;;;0.35;;
46000;SDS011;72226;48.272;11.180;2023-11-19T01:30:47;0.52;;;0.45;;
46000;SDS011;72226;48.272;11.180;2023-11-19T01:33:16;1.50;;;0.60;;
46000;SDS011;72226;48.272;11.180;2023-11-19T01:35:41;1.10;;;0.50;;
46000;SDS011;72226;48.272;11.180;2023-11-19T01:38:06;1.42;;;0.50;;
46000;SDS011;72226;48.272;11.180;2023-11-19T01:40:33;1.80;;;0.60;;
46000;SDS011;72226;48.272;11.180;2023-11-19T01:42:59;0.82;;;0.65;;
46000;SDS011;72226;48.272;11.180;2023-11-19T01:45:28;1.05;;;0.85;;
46000;SDS011;72226;48.272;11.180;2023-11-19T01:47:59;1.02;;;0.57;;
46000;SDS011;72226;48.272;11.180;2023-11-19T01:50:27;1.27;;;0.95;;
46000;SDS011;72226;48.272;11.180;2023-11-19T01:52:53;1.85;;;0.60;;
46000;SDS011;72226;48.272;11.180;2023-11-19T01:55:22;0.50;;;0.25;;
46000;SDS011;72226;48.272;11.180;2023-11-19T01:57:50;0.77;;;0.40;;
46000;SDS011;72226;48.272;11.180;2023-11-19T02:00:17;1.95;;;0.40;;
46000;SDS011;72226;48.272;11.180;2023-11-19T02:02:44;1.67;;;0.65;;
46000;SDS011;72226;48.272;11.180;2023-11-19T02:05:11;0.90;;;0.43;;
46000;SDS011;72226;48.272;11.180;2023-11-19T02:07:38;0.63;;;0.50;;
46000;SDS011;72226;48.272;11.180;2023-11-19T02:10:03;0.90;;;0.50;;
46000;SDS011;72226;48.272;11.180;2023-11-19T02:12:30;1.17;;;0.55;;
46000;SDS011;72226;48.272;11.180;2023-11-19T02:15:01;1.45;;;0.57;;
46000;SDS011;72226;48.272;11.180;2023-11-19T02:17:30;0.55;;;0.30;;
46000;SDS011;72226;48.272;11.180;2023-11-19T02:19:59;0.68;;;0.57;;
46000;SDS011;72226;48.272;11.180;2023-11-19T02:22:25;1.05;;;0.73;;
46000;SDS011;72226;48.272;11.180;2023-11-19T02:24:51;1.77;;;1.00;;
46000;SDS011;72226;48.272;11.180;2023-11-19T02:29:55;1.05;;;0.75;;
46000;SDS011;72226;48.272;11.180;2023-11-19T02:32:22;0.95;;;0.52;;
46000;SDS011;72226;48.272;11.180;2023-11-19T02:34:48;1.08;;;0.70;;
46000;SDS011;72226;48.272;11.180;2023-11-19T02:37:13;1.35;;;0.85;;
46000;SDS011;72226;48.272;11.180;2023-11-19T02:39:40;1.00;;;0.47;;
46000;SDS011;72226;48.272;11.180;2023-11-19T02:42:06;1.10;;;0.57;;
46000;SDS011;72226;48.272;11.180;2023-11-19T02:44:36;0.65;;;0.50;;
46000;SDS011;72226;48.272;11.180;2023-11-19T02:47:01;0.57;;;0.57;;
46000;SDS011;72226;48.272;11.180;2023-11-19T02:49:28;2.65;;;0.77;;
46000;SDS011;72226;48.272;11.180;2023-11-19T02:51:53;1.15;;;0.75;;
46000;SDS011;72226;48.272;11.180;2023-11-19T02:54:19;1.02;;;0.73;;
46000;SDS011;72226;48.272;11.180;2023-11-19T02:56:46;0.52;;;0.50;;
46000;SDS011;72226;48.272;11.180;2023-11-19T02:59:20;1.58;;;0.80;;
46000;SDS011;72226;48.272;11.180;2023-11-19T03:01:52;2.17;;;0.40;;
46000;SDS011;72226;48.272;11.180;2023-11-19T03:04:18;0.65;;;0.50;;
46000;SDS011;72226;48.272;11.180;2023-11-19T03:06:46;0.98;;;0.70;;
46000;SDS011;72226;48.272;11.180;2023-11-19T03:09:11;0.38;;;0.30;;
46000;SDS011;72226;48.272;11.180;2023-11-19T03:11:37;0.50;;;0.45;;
46000;SDS011;72226;48.272;11.180;2023-11-19T03:14:03;1.45;;;0.30;;
46000;SDS011;72226;48.272;11.180;2023-11-19T03:16:28;1.30;;;0.43;;
46000;SDS011;72226;48.272;11.180;2023-11-19T03:18:54;1.85;;;0.60;;
46000;SDS011;72226;48.272;11.180;2023-11-19T03:21:26;0.90;;;0.40;;
46000;SDS011;72226;48.272;11.180;2023-11-19T03:23:56;0.63;;;0.30;;
46000;SDS011;72226;48.272;11.180;2023-11-19T03:26:23;0.95;;;0.40;;
46000;SDS011;72226;48.272;11.180;2023-11-19T03:28:49;1.17;;;0.70;;
46000;SDS011;72226;48.272;11.180;2023-11-19T03:31:14;0.40;;;0.35;;
46000;SDS011;72226;48.272;11.180;2023-11-19T03:33:39;0.35;;;0.35;;
46000;SDS011;72226;48.272;11.180;2023-11-19T03:36:05;0.43;;;0.40;;
46000;SDS011;72226;48.272;11.180;2023-11-19T03:38:32;0.25;;;0.25;;
46000;SDS011;72226;48.272;11.180;2023-11-19T03:40:57;0.93;;;0.20;;
46000;SDS011;72226;48.272;11.180;2023-11-19T03:43:24;1.25;;;0.30;;
46000;SDS011;72226;48.272;11.180;2023-11-19T03:45:49;0.98;;;0.40;;
46000;SDS011;72226;48.272;11.180;2023-11-19T03:48:15;0.80;;;0.38;;
46000;SDS011;72226;48.272;11.180;2023-11-19T03:50:41;0.20;;;0.20;;
46000;SDS011;72226;48.272;11.180;2023-11-19T03:53:07;0.47;;;0.28;;
46000;SDS011;72226;48.272;11.180;2023-11-19T03:55:32;0.25;;;0.20;;
46000;SDS011;72226;48.272;11.180;2023-11-19T03:57:57;0.43;;;0.40;;
46000;SDS011;72226;48.272;11.180;2023-11-19T04:00:23;0.25;;;0.25;;
46000;SDS011;72226;48.272;11.180;2023-11-19T04:02:48;0.63;;;0.30;;
46000;SDS011;72226;48.272;11.180;2023-11-19T04:05:14;0.22;;;0.22;;
46000;SDS011;72226;48.272;11.180;2023-11-19T04:07:39;0.10;;;0.10;;
46000;SDS011;72226;48.272;11.180;2023-11-19T04:10:05;1.55;;;0.30;;
46000;SDS011;72226;48.272;11.180;2023-11-19T04:12:30;0.45;;;0.38;;
46000;SDS011;72226;48.272;11.180;2023-11-19T04:14:56;1.40;;;0.65;;
46000;SDS011;72226;48.272;11.180;2023-11-19T04:17:21;0.20;;;0.20;;
46000;SDS011;72226;48.272;11.180;2023-11-19T04:19:48;0.45;;;0.25;;
46000;SDS011;72226;48.272;11.180;2023-11-19T04:22:13;1.02;;;0.30;;
46000;SDS011;72226;48.272;11.180;2023-11-19T04:24:39;0.65;;;0.30;;
46000;SDS011;72226;48.272;11.180;2023-11-19T04:27:05;0.50;;;0.25;;
46000;SDS011;72226;48.272;11.180;2023-11-19T04:29:31;0.43;;;0.30;;
46000;SDS011;72226;48.272;11.180;2023-11-19T04:31:57;0.32;;;0.20;;
46000;SDS011;72226;48.272;11.180;2023-11-19T04:34:23;0.30;;;0.20;;
46000;SDS011;72226;48.272;11.180;2023-11-19T04:36:49;0.40;;;0.38;;
46000;SDS011;72226;48.272;11.180;2023-11-19T04:39:14;0.93;;;0.20;;
46000;SDS011;72226;48.272;11.180;2023-11-19T04:41:47;1.58;;;0.50;;
46000;SDS011;72226;48.272;11.180;2023-11-19T04:46:38;0.65;;;0.30;;
46000;SDS011;72226;48.272;11.180;2023-11-19T04:49:04;0.73;;;0.60;;
46000;SDS011;72226;48.272;11.180;2023-11-19T04:51:29;1.55;;;0.30;;
46000;SDS011;72226;48.272;11.180;2023-11-19T04:53:55;0.75;;;0.40;;
46000;SDS011;72226;48.272;11.180;2023-11-19T04:56:21;0.55;;;0.50;;
46000;SDS011;72226;48.272;11.180;2023-11-19T04:58:48;0.40;;;0.40;;
46000;SDS011;72226;48.272;11.180;2023-11-19T05:01:14;0.65;;;0.30;;
46000;SDS011;72226;48.272;11.180;2023-11-19T05:03:42;0.22;;;0.20;;
46000;SDS011;72226;48.272;11.180;2023-11-19T05:06:07;0.75;;;0.35;;
46000;SDS011;72226;48.272;11.180;2023-11-19T05:08:33;2.13;;;0.35;;
46000;SDS011;72226;48.272;11.180;2023-11-19T05:10:58;0.35;;;0.30;;
46000;SDS011;72226;48.272;11.180;2023-11-19T05:13:24;0.63;;;0.30;;
46000;SDS011;72226;48.272;11.180;2023-11-19T05:15:49;0.63;;;0.50;;
46000;SDS011;72226;48.272;11.180;2023-11-19T05:18:15;0.55;;;0.28;;
46000;SDS011;72226;48.272;11.180;2023-11-19T05:20:40;0.75;;;0.55;;
46000;SDS011;72226;48.272;11.180;2023-11-19T05:23:06;0.30;;;0.30;;
46000;SDS011;72226;48.272;11.180;2023-11-19T05:25:31;0.60;;;0.50;;
46000;SDS011;72226;48.272;11.180;2023-11-19T05:27:56;1.17;;;0.50;;
46000;SDS011;72226;48.272;11.180;2023-11-19T05:30:22;0.98;;;0.65;;
46000;SDS011;72226;48.272;11.180;2023-11-19T05:32:48;0.50;;;0.50;;
46000;SDS011;72226;48.272;11.180;2023-11-19T05:35:13;0.43;;;0.22;;
46000;SDS011;72226;48.272;11.180;2023-11-19T05:37:38;0.75;;;0.55;;
46000;SDS011;72226;48.272;11.180;2023-11-19T05:40:05;0.50;;;0.30;;
46000;SDS011;72226;48.272;11.180;2023-11-19T05:42:37;1.85;;;0.35;;
46000;SDS011;72226;48.272;11.180;2023-11-19T05:45:02;2.92;;;0.40;;
46000;SDS011;72226;48.272;11.180;2023-11-19T05:47:28;0.40;;;0.40;;
46000;SDS011;72226;48.272;11.180;2023-11-19T05:49:53;0.63;;;0.40;;
46000;SDS011;72226;48.272;11.180;2023-11-19T05:52:19;0.50;;;0.40;;
46000;SDS011;72226;48.272;11.180;2023-11-19T05:54:44;2.45;;;0.63;;
46000;SDS011;72226;48.272;11.180;2023-11-19T05:57:10;1.90;;;0.80;;
46000;SDS011;72226;48.272;11.180;2023-11-19T05:59:35;0.57;;;0.50;;
46000;SDS011;72226;48.272;11.180;2023-11-19T06:02:01;0.40;;;0.40;;
46000;SDS011;72226;48.272;11.180;2023-11-19T06:04:27;0.50;;;0.40;;
46000;SDS011;72226;48.272;11.180;2023-11-19T06:06:54;0.82;;;0.40;;
46000;SDS011;72226;48.272;11.180;2023-11-19T06:09:20;0.52;;;0.32;;
46000;SDS011;72226;48.272;11.180;2023-11-19T06:11:48;0.77;;;0.50;;
46000;SDS011;72226;48.272;11.180;2023-11-19T06:14:14;2.70;;;0.38;;
46000;SDS011;72226;48.272;11.180;2023-11-19T06:16:39;0.43;;;0.40;;
46000;SDS011;72226;48.272;11.180;2023-11-19T06:19:05;1.17;;;0.40;;
46000;SDS011;72226;48.272;11.180;2023-11-19T06:21:30;0.55;;;0.30;;
46000;SDS011;72226;48.272;11.180;2023-11-19T06:23:55;0.32;;;0.32;;
46000;SDS011;72226;48.272;11.180;2023-11-19T06:26:21;0.20;;;0.20;;
46000;SDS011;72226;48.272;11.180;2023-11-19T06:28:47;1.40;;;0.43;;
46000;SDS011;72226;48.272;11.180;2023-11-19T06:31:12;1.00;;;0.55;;
46000;SDS011;72226;48.272;11.180;2023-11-19T06:33:41;1.17;;;0.50;;
46000;SDS011;72226;48.272;11.180;2023-11-19T06:36:06;1.20;;;0.40;;
46000;SDS011;72226;48.272;11.180;2023-11-19T06:38:32;0.70;;;0.57;;
46000;SDS011;72226;48.272;11.180;2023-11-19T06:40:58;0.60;;;0.57;;
46000;SDS011;72226;48.272;11.180;2023-11-19T06:43:23;0.40;;;0.40;;
46000;SDS011;72226;48.272;11.180;2023-11-19T06:45:49;2.17;;;0.50;;
46000;SDS011;72226;48.272;11.180;2023-11-19T06:48:14;0.50;;;0.30;;
46000;SDS011;72226;48.272;11.180;2023-11-19T06:50:40;0.98;;;0.43;;
46000;SDS011;72226;48.272;11.180;2023-11-19T06:53:05;0.70;;;0.50;;
46000;SDS011;72226;48.272;11.180;2023-11-19T06:55:31;0.38;;;0.30;;
46000;SDS011;72226;48.272;11.180;2023-11-19T06:57:57;0.40;;;0.40;;
46000;SDS011;72226;48.272;11.180;2023-11-19T07:00:25;0.73;;;0.40;;
46000;SDS011;72226;48.272;11.180;2023-11-19T07:02:50;1.23;;;0.45;;
46000;SDS011;72226;48.272;11.180;2023-11-19T07:05:16;0.35;;;0.35;;
46000;SDS011;72226;48.272;11.180;2023-11-19T07:07:41;0.50;;;0.50;;
46000;SDS011;72226;48.272;11.180;2023-11-19T07:10:07;0.75;;;0.60;;
46000;SDS011;72226;48.272;11.180;2023-11-19T07:12:34;0.32;;;0.30;;
46000;SDS011;72226;48.272;11.180;2023-11-19T07:15:00;0.55;;;0.30;;
46000;SDS011;72226;48.272;11.180;2023-11-19T07:17:27;1.33;;;0.63;;
46000;SDS011;72226;48.272;11.180;2023-11-19T07:19:52;0.65;;;0.40;;
46000;SDS011;72226;48.272;11.180;2023-11-19T07:22:18;0.40;;;0.40;;
46000;SDS011;72226;48.272;11.180;2023-11-19T07:24:43;0.60;;;0.45;;
46000;SDS011;72226;48.272;11.180;2023-11-19T07:27:08;0.73;;;0.38;;
46000;SDS011;72226;48.272;11.180;2023-11-19T07:29:34;0.32;;;0.20;;
46000;SDS011;72226;48.272;11.180;2023-11-19T07:32:00;0.70;;;0.40;;
46000;SDS011;72226;48.272;11.180;2023-11-19T07:34:27;1.17;;;0.20;;
46000;SDS011;72226;48.272;11.180;2023-11-19T07:36:52;0.30;;;0.25;;
46000;SDS011;72226;48.272;11.180;2023-11-19T07:39:18;0.10;;;0.10;;
46000;SDS011;72226;48.272;11.180;2023-11-19T07:41:44;0.57;;;0.20;;
46000;SDS011;72226;48.272;11.180;2023-11-19T07:44:09;0.20;;;0.20;;
46000;SDS011;72226;48.272;11.180;2023-11-19T07:46:34;0.52;;;0.40;;
46000;SDS011;72226;48.272;11.180;2023-11-19T07:49:00;0.20;;;0.20;;
46000;SDS011;72226;48.272;11.180;2023-11-19T07:51:27;0.20;;;0.20;;
46000;SDS011;72226;48.272;11.180;2023-11-19T07:53:53;0.15;;;0.15;;
46000;SDS011;72226;48.272;11.180;2023-11-19T07:56:18;0.55;;;0.35;;
46000;SDS011;72226;48.272;11.180;2023-11-19T07:58:43;0.20;;;0.20;;
46000;SDS011;72226;48.272;11.180;2023-11-19T08:01:09;0.82;;;0.47;;
46000;SDS011;72226;48.272;11.180;2023-11-19T08:03:34;2.22;;;0.30;;
46000;SDS011;72226;48.272;11.180;2023-11-19T08:06:00;0.20;;;0.10;;
46000;SDS011;72226;48.272;11.180;2023-11-19T08:08:26;1.00;;;0.28;;
46000;SDS011;72226;48.272;11.180;2023-11-19T08:10:51;0.30;;;0.20;;
46000;SDS011;72226;48.272;11.180;2023-11-19T08:13:20;0.57;;;0.40;;
46000;SDS011;72226;48.272;11.180;2023-11-19T08:15:46;0.20;;;0.20;;
46000;SDS011;72226;48.272;11.180;2023-11-19T08:18:12;0.32;;;0.20;;
46000;SDS011;72226;48.272;11.180;2023-11-19T08:20:37;0.68;;;0.30;;
46000;SDS011;72226;48.272;11.180;2023-11-19T08:23:03;0.28;;;0.28;;
46000;SDS011;72226;48.272;11.180;2023-11-19T08:25:29;0.57;;;0.45;;
46000;SDS011;72226;48.272;11.180;2023-11-19T08:27:54;1.02;;;0.30;;
46000;SDS011;72226;48.272;11.180;2023-11-19T08:30:19;1.33;;;0.40;;
46000;SDS011;72226;48.272;11.180;2023-11-19T08:32:45;0.70;;;0.70;;
46000;SDS011;72226;48.272;11.180;2023-11-19T08:35:10;0.68;;;0.43;;
46000;SDS011;72226;48.272;11.180;2023-11-19T08:37:36;0.63;;;0.22;;
46000;SDS011;72226;48.272;11.180;2023-11-19T08:40:02;1.00;;;0.60;;
46000;SDS011;72226;48.272;11.180;2023-11-19T08:42:29;0.50;;;0.35;;
46000;SDS011;72226;48.272;11.180;2023-11-19T08:44:55;0.47;;;0.20;;
46000;SDS011;72226;48.272;11.180;2023-11-19T08:47:20;0.38;;;0.30;;
46000;SDS011;72226;48.272;11.180;2023-11-19T08:49:47;0.60;;;0.30;;
46000;SDS011;72226;48.272;11.180;2023-11-19T08:52:13;1.75;;;0.32;;
46000;SDS011;72226;48.272;11.180;2023-11-19T08:54:41;0.90;;;0.55;;
46000;SDS011;72226;48.272;11.180;2023-11-19T08:57:07;1.02;;;0.50;;
46000;SDS011;72226;48.272;11.180;2023-11-19T08:59:34;0.40;;;0.28;;
46000;SDS011;72226;48.272;11.180;2023-11-19T09:01:59;0.82;;;0.30;;
46000;SDS011;72226;48.272;11.180;2023-11-19T09:04:24;0.50;;;0.40;;
46000;SDS011;72226;48.272;11.180;2023-11-19T09:06:50;0.32;;;0.32;;
46000;SDS011;72226;48.272;11.180;2023-11-19T09:09:15;1.45;;;0.22;;
46000;SDS011;72226;48.272;11.180;2023-11-19T09:11:41;0.47;;;0.43;;
46000;SDS011;72226;48.272;11.180;2023-11-19T09:14:06;0.43;;;0.40;;
46000;SDS011;72226;48.272;11.180;2023-11-19T09:16:32;0.45;;;0.45;;
46000;SDS011;72226;48.272;11.180;2023-11-19T09:18:57;0.35;;;0.28;;
46000;SDS011;72226;48.272;11.180;2023-11-19T09:21:24;0.20;;;0.20;;
46000;SDS011;72226;48.272;11.180;2023-11-19T09:23:50;0.70;;;0.45;;
46000;SDS011;72226;48.272;11.180;2023-11-19T09:26:15;0.65;;;0.50;;
46000;SDS011;72226;48.272;11.180;2023-11-19T09:28:41;0.50;;;0.30;;
46000;SDS011;72226;48.272;11.180;2023-11-19T09:31:12;0.70;;;0.32;;
46000;SDS011;72226;48.272;11.180;2023-11-19T09:33:38;1.13;;;0.40;;
46000;SDS011;72226;48.272;11.180;2023-11-19T09:36:04;0.95;;;0.30;;
46000;SDS011;72226;48.272;11.180;2023-11-19T09:38:30;0.50;;;0.38;;
46000;SDS011;72226;48.272;11.180;2023-11-19T09:40:55;0.40;;;0.28;;
46000;SDS011;72226;48.272;11.180;2023-11-19T09:43:22;0.80;;;0.40;;
46000;SDS011;72226;48.272;11.180;2023-11-19T09:45:48;1.55;;;0.55;;
46000;SDS011;72226;48.272;11.180;2023-11-19T09:48:18;0.50;;;0.40;;
46000;SDS011;72226;48.272;11.180;2023-11-19T09:50:45;1.25;;;0.17;;
46000;SDS011;72226;48.272;11.180;2023-11-19T09:53:12;0.35;;;0.35;;
46000;SDS011;72226;48.272;11.180;2023-11-19T09:55:38;0.52;;;0.28;;
46000;SDS011;72226;48.272;11.180;2023-11-19T09:58:03;0.77;;;0.30;;
46000;SDS011;72226;48.272;11.180;2023-11-19T10:00:30;1.40;;;0.50;;
46000;SDS011;72226;48.272;11.180;2023-11-19T10:02:56;0.77;;;0.20;;
46000;SDS011;72226;48.272;11.180;2023-11-19T10:05:22;0.40;;;0.30;;
46000;SDS011;72226;48.272;11.180;2023-11-19T10:07:49;0.30;;;0.20;;
46000;SDS011;72226;48.272;11.180;2023-11-19T10:10:15;0.47;;;0.25;;
46000;SDS011;72226;48.272;11.180;2023-11-19T10:12:44;0.63;;;0.35;;
46000;SDS011;72226;48.272;11.180;2023-11-19T10:15:15;0.47;;;0.30;;
46000;SDS011;72226;48.272;11.180;2023-11-19T10:17:44;0.80;;;0.30;;
46000;SDS011;72226;48.272;11.180;2023-11-19T10:20:10;2.33;;;0.38;;
46000;SDS011;72226;48.272;11.180;2023-11-19T10:22:38;0.32;;;0.30;;
46000;SDS011;72226;48.272;11.180;2023-11-19T10:25:04;0.82;;;0.25;;
46000;SDS011;72226;48.272;11.180;2023-11-19T10:27:47;0.30;;;0.30;;
46000;SDS011;72226;48.272;11.180;2023-11-19T10:30:12;1.25;;;0.28;;
46000;SDS011;72226;48.272;11.180;2023-11-19T10:32:38;0.40;;;0.40;;
46000;SDS011;72226;48.272;11.180;2023-11-19T10:35:06;0.85;;;0.63;;
46000;SDS011;72226;48.272;11.180;2023-11-19T10:37:32;0.30;;;0.30;;
46000;SDS011;72226;48.272;11.180;2023-11-19T10:40:00;0.93;;;0.40;;
46000;SDS011;72226;48.272;11.180;2023-11-19T10:42:25;1.58;;;0.50;;
46000;SDS011;72226;48.272;11.180;2023-11-19T10:44:51;1.08;;;0.52;;
46000;SDS011;72226;48.272;11.180;2023-11-19T10:47:18;0.45;;;0.10;;
46000;SDS011;72226;48.272;11.180;2023-11-19T10:49:44;1.33;;;0.47;;
46000;SDS011;72226;48.272;11.180;2023-11-19T10:52:14;0.45;;;0.30;;
46000;SDS011;72226;48.272;11.180;2023-11-19T10:54:44;0.63;;;0.30;;
46000;SDS011;72226;48.272;11.180;2023-11-19T10:57:13;0.30;;;0.20;;
46000;SDS011;72226;48.272;11.180;2023-11-19T10:59:44;0.22;;;0.10;;
46000;SDS011;72226;48.272;11.180;2023-11-19T11:02:10;0.45;;;0.30;;
46000;SDS011;72226;48.272;11.180;2023-11-19T11:04:44;0.38;;;0.30;;
46000;SDS011;72226;48.272;11.180;2023-11-19T11:07:12;1.10;;;0.30;;
46000;SDS011;72226;48.272;11.180;2023-11-19T11:09:41;2.05;;;0.40;;
46000;SDS011;72226;48.272;11.180;2023-11-19T11:12:06;0.10;;;0.10;;
46000;SDS011;72226;48.272;11.180;2023-11-19T11:14:34;0.30;;;0.20;;
46000;SDS011;72226;48.272;11.180;2023-11-19T11:17:02;1.75;;;0.20;;
46000;SDS011;72226;48.272;11.180;2023-11-19T11:19:32;0.35;;;0.30;;
46000;SDS011;72226;48.272;11.180;2023-11-19T11:21:59;0.10;;;0.10;;
46000;SDS011;72226;48.272;11.180;2023-11-19T11:24:48;0.38;;;0.15;;
46000;SDS011;72226;48.272;11.180;2023-11-19T11:27:35;0.10;;;0.10;;
46000;SDS011;72226;48.272;11.180;2023-11-19T11:39:12;0.38;;;0.30;;
46000;SDS011;72226;48.272;11.180;2023-11-19T11:41:38;0.20;;;0.10;;
46000;SDS011;72226;48.272;11.180;2023-11-19T11:44:03;2.00;;;0.88;;
46000;SDS011;72226;48.272;11.180;2023-11-19T11:49:01;0.65;;;0.15;;
46000;SDS011;72226;48.272;11.180;2023-11-19T11:51:57;0.30;;;0.20;;
46000;SDS011;72226;48.272;11.180;2023-11-19T12:02:19;0.30;;;0.20;;
46000;SDS011;72226;48.272;11.180;2023-11-19T12:04:47;3.45;;;0.40;;
46000;SDS011;72226;48.272;11.180;2023-11-19T12:07:15;0.68;;;0.28;;
46000;SDS011;72226;48.272;11.180;2023-11-19T12:09:46;0.40;;;0.30;;
46000;SDS011;72226;48.272;11.180;2023-11-19T12:14:59;0.20;;;0.20;;
46000;SDS011;72226;48.272;11.180;2023-11-19T12:18:10;0.17;;;0.17;;
46000;SDS011;72226;48.272;11.180;2023-11-19T12:20:17;0.52;;;0.28;;
46000;SDS011;72226;48.272;11.180;2023-11-19T12:22:45;0.35;;;0.30;;
46000;SDS011;72226;48.272;11.180;2023-11-19T12:25:11;1.10;;;0.30;;
46000;SDS011;72226;48.272;11.180;2023-11-19T12:27:41;0.50;;;0.30;;
46000;SDS011;72226;48.272;11.180;2023-11-19T12:30:08;0.57;;;0.20;;
46000;SDS011;72226;48.272;11.180;2023-11-19T12:32:41;0.38;;;0.20;;
46000;SDS011;72226;48.272;11.180;2023-11-19T12:35:10;2.33;;;0.10;;
46000;SDS011;72226;48.272;11.180;2023-11-19T12:37:39;0.10;;;0.10;;
46000;SDS011;72226;48.272;11.180;2023-11-19T12:40:24;0.17;;;0.15;;
46000;SDS011;72226;48.272;11.180;2023-11-19T12:42:50;0.65;;;0.30;;
46000;SDS011;72226;48.272;11.180;2023-11-19T12:45:18;0.28;;;0.10;;
46000;SDS011;72226;48.272;11.180;2023-11-19T12:47:46;0.32;;;0.13;;
46000;SDS011;72226;48.272;11.180;2023-11-19T12:50:15;0.75;;;0.30;;
46000;SDS011;72226;48.272;11.180;2023-11-19T12:52:42;0.52;;;0.10;;
46000;SDS011;72226;48.272;11.180;2023-11-19T12:55:24;0.57;;;0.38;;
46000;SDS011;72226;48.272;11.180;2023-11-19T12:57:53;1.15;;;0.50;;
46000;SDS011;72226;48.272;11.180;2023-11-19T13:00:23;0.80;;;0.40;;
46000;SDS011;72226;48.272;11.180;2023-11-19T13:02:53;0.20;;;0.15;;
46000;SDS011;72226;48.272;11.180;2023-11-19T13:05:24;1.65;;;0.15;;
46000;SDS011;72226;48.272;11.180;2023-11-19T13:08:05;0.90;;;0.30;;
46000;SDS011;72226;48.272;11.180;2023-11-19T13:10:33;0.40;;;0.15;;
46000;SDS011;72226;48.272;11.180;2023-11-19T13:13:13;0.55;;;0.20;;
46000;SDS011;72226;48.272;11.180;2023-11-19T13:15:39;0.20;;;0.20;;
46000;SDS011;72226;48.272;11.180;2023-11-19T13:18:05;0.45;;;0.30;;
46000;SDS011;72226;48.272;11.180;2023-11-19T13:20:31;1.23;;;0.22;;
46000;SDS011;72226;48.272;11.180;2023-11-19T13:22:59;0.10;;;0.10;;
46000;SDS011;72226;48.272;11.180;2023-11-19T13:25:28;0.25;;;0.10;;
46000;SDS011;72226;48.272;11.180;2023-11-19T13:27:55;0.20;;;0.10;;
46000;SDS011;72226;48.272;11.180;2023-11-19T13:30:21;0.40;;;0.20;;
46000;SDS011;72226;48.272;11.180;2023-11-19T13:32:47;0.47;;;0.30;;
46000;SDS011;72226;48.272;11.180;2023-11-19T13:35:13;0.65;;;0.25;;
46000;SDS011;72226;48.272;11.180;2023-11-19T13:37:39;0.75;;;0.20;;
46000;SDS011;72226;48.272;11.180;2023-11-19T13:40:06;0.57;;;0.20;;
46000;SDS011;72226;48.272;11.180;2023-11-19T13:42:32;0.28;;;0.20;;
46000;SDS011;72226;48.272;11.180;2023-11-19T13:44:57;0.75;;;0.30;;
46000;SDS011;72226;48.272;11.180;2023-11-19T13:47:23;2.42;;;0.17;;
46000;SDS011;72226;48.272;11.180;2023-11-19T13:49:49;0.60;;;0.25;;
46000;SDS011;72226;48.272;11.180;2023-11-19T13:52:14;0.20;;;0.10;;
46000;SDS011;72226;48.272;11.180;2023-11-19T13:54:40;3.85;;;0.32;;
46000;SDS011;72226;48.272;11.180;2023-11-19T13:57:06;0.50;;;0.30;;
46000;SDS011;72226;48.272;11.180;2023-11-19T13:59:31;0.47;;;0.20;;
46000;SDS011;72226;48.272;11.180;2023-11-19T14:01:57;0.20;;;0.10;;
46000;SDS011;72226;48.272;11.180;2023-11-19T14:04:23;0.35;;;0.13;;
46000;SDS011;72226;48.272;11.180;2023-11-19T14:06:49;0.10;;;0.10;;
46000;SDS011;72226;48.272;11.180;2023-11-19T14:09:14;0.55;;;0.30;;
46000;SDS011;72226;48.272;11.180;2023-11-19T14:11:40;0.35;;;0.22;;
46000;SDS011;72226;48.272;11.180;2023-11-19T14:14:05;3.20;;;0.47;;
46000;SDS011;72226;48.272;11.180;2023-11-19T14:16:31;0.40;;;0.15;;
46000;SDS011;72226;48.272;11.180;2023-11-19T14:18:57;0.10;;;0.08;;
46000;SDS011;72226;48.272;11.180;2023-11-19T14:21:22;0.52;;;0.40;;
46000;SDS011;72226;48.272;11.180;2023-11-19T14:23:48;0.32;;;0.20;;
46000;SDS011;72226;48.272;11.180;2023-11-19T14:26:13;0.45;;;0.10;;
46000;SDS011;72226;48.272;11.180;2023-11-19T14:28:39;0.35;;;0.10;;
46000;SDS011;72226;48.272;11.180;2023-11-19T14:31:04;0.20;;;0.10;;
46000;SDS011;72226;48.272;11.180;2023-11-19T14:33:30;0.75;;;0.40;;
46000;SDS011;72226;48.272;11.180;2023-11-19T14:35:55;0.30;;;0.20;;
46000;SDS011;72226;48.272;11.180;2023-11-19T14:38:21;0.20;;;0.20;;
46000;SDS011;72226;48.272;11.180;2023-11-19T14:40:46;2.60;;;0.30;;
46000;SDS011;72226;48.272;11.180;2023-11-19T14:43:13;0.77;;;0.20;;
46000;SDS011;72226;48.272;11.180;2023-11-19T14:45:40;2.50;;;0.50;;
46000;SDS011;72226;48.272;11.180;2023-11-19T14:48:05;0.82;;;0.20;;
46000;SDS011;72226;48.272;11.180;2023-11-19T14:50:31;0.68;;;0.35;;
46000;SDS011;72226;48.272;11.180;2023-11-19T14:52:56;0.82;;;0.40;;
46000;SDS011;72226;48.272;11.180;2023-11-19T14:55:22;0.40;;;0.20;;
46000;SDS011;72226;48.272;11.180;2023-11-19T14:57:47;0.55;;;0.30;;